sensor_id;sensor_type;location;lat;lon;timestamp;P1;durP1;ratioP1;P2;durP2;ratioP2
16612;SDS011;8419;52.358;9.752;2022-08-03T00:01:58;2.67;;;2.42;;
16612;SDS011;8419;52.358;9.752;2022-08-03T00:04:45;2.50;;;2.30;;
16612;SDS011;8419;52.358;9.752;2022-08-03T00:07:30;3.35;;;2.62;;
16612;SDS011;8419;52.358;9.752;2022-08-03T00:10:16;4.28;;;2.75;;
16612;SDS011;8419;52.358;9.752;2022-08-03T00:13:01;5.75;;;2.60;;
16612;SDS011;8419;52.358;9.752;2022-08-03T00:15:46;4.50;;;3.00;;
16612;SDS011;8419;52.358;9.752;2022-08-03T00:18:31;4.35;;;2.90;;
16612;SDS011;8419;52.358;9.752;2022-08-03T00:21:17;3.58;;;2.85;;
16612;SDS011;8419;52.358;9.752;2022-08-03T00:24:03;3.42;;;2.42;;
16612;SDS011;8419;52.358;9.752;2022-08-03T00:26:49;3.12;;;2.50;;
16612;SDS011;8419;52.358;9.752;2022-08-03T00:29:35;3.37;;;2.00;;
16612;SDS011;8419;52.358;9.752;2022-08-03T00:32:20;6.35;;;2.90;;
16612;SDS011;8419;52.358;9.752;2022-08-03T00:35:06;4.12;;;2.33;;
16612;SDS011;8419;52.358;9.752;2022-08-03T00:37:52;3.05;;;2.70;;
16612;SDS011;8419;52.358;9.752;2022-08-03T00:40:38;2.65;;;2.45;;
16612;SDS011;8419;52.358;9.752;2022-08-03T00:43:24;3.17;;;2.62;;
16612;SDS011;8419;52.358;9.752;2022-08-03T00:46:10;5.05;;;2.65;;
16612;SDS011;8419;52.358;9.752;2022-08-03T00:48:56;3.53;;;2.78;;
16612;SDS011;8419;52.358;9.752;2022-08-03T00:51:41;3.85;;;2.83;;
16612;SDS011;8419;52.358;9.752;2022-08-03T00:54:26;5.62;;;2.70;;
16612;SDS011;8419;52.358;9.752;2022-08-03T00:57:12;4.28;;;2.85;;
16612;SDS011;8419;52.358;9.752;2022-08-03T00:59:58;2.70;;;2.50;;
16612;SDS011;8419;52.358;9.752;2022-08-03T01:02:44;3.87;;;2.80;;
16612;SDS011;8419;52.358;9.752;2022-08-03T01:05:30;2.90;;;2.70;;
16612;SDS011;8419;52.358;9.752;2022-08-03T01:08:22;4.50;;;3.00;;
16612;SDS011;8419;52.358;9.752;2022-08-03T01:11:18;3.90;;;2.30;;
16612;SDS011;8419;52.358;9.752;2022-08-03T01:14:13;5.45;;;2.80;;
16612;SDS011;8419;52.358;9.752;2022-08-03T01:17:10;3.28;;;2.58;;
16612;SDS011;8419;52.358;9.752;2022-08-03T01:19:59;3.00;;;2.78;;
16612;SDS011;8419;52.358;9.752;2022-08-03T01:22:54;3.75;;;2.62;;
16612;SDS011;8419;52.358;9.752;2022-08-03T01:26:02;2.53;;;2.33;;
16612;SDS011;8419;52.358;9.752;2022-08-03T01:28:58;2.60;;;2.40;;
16612;SDS011;8419;52.358;9.752;2022-08-03T01:31:54;5.00;;;2.67;;
16612;SDS011;8419;52.358;9.752;2022-08-03T01:34:46;4.35;;;2.70;;
16612;SDS011;8419;52.358;9.752;2022-08-03T01:37:37;4.37;;;3.03;;
16612;SDS011;8419;52.358;9.752;2022-08-03T01:40:26;5.03;;;2.87;;
16612;SDS011;8419;52.358;9.752;2022-08-03T01:43:15;3.53;;;2.70;;
16612;SDS011;8419;52.358;9.752;2022-08-03T01:46:03;3.87;;;2.87;;
16612;SDS011;8419;52.358;9.752;2022-08-03T01:48:50;3.97;;;2.80;;
16612;SDS011;8419;52.358;9.752;2022-08-03T01:51:37;5.20;;;2.50;;
16612;SDS011;8419;52.358;9.752;2022-08-03T01:54:25;2.80;;;2.45;;
16612;SDS011;8419;52.358;9.752;2022-08-03T01:57:12;4.60;;;2.60;;
16612;SDS011;8419;52.358;9.752;2022-08-03T02:00:00;3.47;;;3.00;;
16612;SDS011;8419;52.358;9.752;2022-08-03T02:02:46;3.97;;;3.00;;
16612;SDS011;8419;52.358;9.752;2022-08-03T02:05:33;3.08;;;2.75;;
16612;SDS011;8419;52.358;9.752;2022-08-03T02:08:21;2.95;;;2.72;;
16612;SDS011;8419;52.358;9.752;2022-08-03T02:11:09;5.43;;;2.53;;
16612;SDS011;8419;52.358;9.752;2022-08-03T02:13:56;2.62;;;2.42;;
16612;SDS011;8419;52.358;9.752;2022-08-03T02:16:44;3.65;;;2.58;;
16612;SDS011;8419;52.358;9.752;2022-08-03T02:19:32;3.25;;;2.95;;
16612;SDS011;8419;52.358;9.752;2022-08-03T02:22:17;3.30;;;2.60;;
16612;SDS011;8419;52.358;9.752;2022-08-03T02:25:05;6.03;;;3.22;;
16612;SDS011;8419;52.358;9.752;2022-08-03T02:27:54;3.22;;;2.80;;
16612;SDS011;8419;52.358;9.752;2022-08-03T02:30:42;2.92;;;2.60;;
16612;SDS011;8419;52.358;9.752;2022-08-03T02:33:31;4.00;;;2.90;;
16612;SDS011;8419;52.358;9.752;2022-08-03T02:36:22;3.35;;;2.90;;
16612;SDS011;8419;52.358;9.752;2022-08-03T02:39:12;5.37;;;3.10;;
16612;SDS011;8419;52.358;9.752;2022-08-03T02:42:03;4.45;;;2.70;;
16612;SDS011;8419;52.358;9.752;2022-08-03T02:44:52;3.80;;;3.15;;
16612;SDS011;8419;52.358;9.752;2022-08-03T02:47:42;3.55;;;3.05;;
16612;SDS011;8419;52.358;9.752;2022-08-03T02:50:29;4.80;;;2.92;;
16612;SDS011;8419;52.358;9.752;2022-08-03T02:53:17;5.50;;;2.97;;
16612;SDS011;8419;52.358;9.752;2022-08-03T02:56:04;3.90;;;2.72;;
16612;SDS011;8419;52.358;9.752;2022-08-03T02:58:52;2.67;;;2.47;;
16612;SDS011;8419;52.358;9.752;2022-08-03T03:01:39;4.95;;;2.70;;
16612;SDS011;8419;52.358;9.752;2022-08-03T03:04:28;5.00;;;3.05;;
16612;SDS011;8419;52.358;9.752;2022-08-03T03:07:14;3.55;;;2.78;;
16612;SDS011;8419;52.358;9.752;2022-08-03T03:10:01;2.83;;;2.58;;
16612;SDS011;8419;52.358;9.752;2022-08-03T03:12:47;3.58;;;3.28;;
16612;SDS011;8419;52.358;9.752;2022-08-03T03:15:36;7.18;;;2.83;;
16612;SDS011;8419;52.358;9.752;2022-08-03T03:18:24;3.95;;;2.87;;
16612;SDS011;8419;52.358;9.752;2022-08-03T03:21:15;2.72;;;2.53;;
16612;SDS011;8419;52.358;9.752;2022-08-03T03:24:03;5.60;;;3.12;;
16612;SDS011;8419;52.358;9.752;2022-08-03T03:26:50;3.00;;;2.70;;
16612;SDS011;8419;52.358;9.752;2022-08-03T03:29:36;3.20;;;2.83;;
16612;SDS011;8419;52.358;9.752;2022-08-03T03:32:21;3.28;;;2.62;;
16612;SDS011;8419;52.358;9.752;2022-08-03T03:35:08;3.85;;;2.90;;
16612;SDS011;8419;52.358;9.752;2022-08-03T03:37:54;2.80;;;2.60;;
16612;SDS011;8419;52.358;9.752;2022-08-03T03:40:40;3.47;;;2.45;;
16612;SDS011;8419;52.358;9.752;2022-08-03T03:43:26;3.03;;;2.70;;
16612;SDS011;8419;52.358;9.752;2022-08-03T03:46:13;3.25;;;2.80;;
16612;SDS011;8419;52.358;9.752;2022-08-03T03:48:59;2.97;;;2.70;;
16612;SDS011;8419;52.358;9.752;2022-08-03T03:51:44;3.67;;;2.58;;
16612;SDS011;8419;52.358;9.752;2022-08-03T03:54:38;5.95;;;2.65;;
16612;SDS011;8419;52.358;9.752;2022-08-03T03:57:25;3.47;;;2.65;;
16612;SDS011;8419;52.358;9.752;2022-08-03T04:00:12;2.42;;;2.22;;
16612;SDS011;8419;52.358;9.752;2022-08-03T04:02:59;3.90;;;2.50;;
16612;SDS011;8419;52.358;9.752;2022-08-03T04:05:45;2.92;;;2.72;;
16612;SDS011;8419;52.358;9.752;2022-08-03T04:08:49;4.60;;;2.70;;
16612;SDS011;8419;52.358;9.752;2022-08-03T04:12:03;2.83;;;2.42;;
16612;SDS011;8419;52.358;9.752;2022-08-03T04:14:50;2.60;;;2.40;;
16612;SDS011;8419;52.358;9.752;2022-08-03T04:17:40;3.45;;;2.42;;
16612;SDS011;8419;52.358;9.752;2022-08-03T04:20:28;2.92;;;2.42;;
16612;SDS011;8419;52.358;9.752;2022-08-03T04:23:16;2.75;;;2.55;;
16612;SDS011;8419;52.358;9.752;2022-08-03T04:26:04;4.03;;;2.53;;
16612;SDS011;8419;52.358;9.752;2022-08-03T04:28:53;4.22;;;2.62;;
16612;SDS011;8419;52.358;9.752;2022-08-03T04:31:39;3.00;;;2.70;;
16612;SDS011;8419;52.358;9.752;2022-08-03T04:34:29;3.87;;;2.53;;
16612;SDS011;8419;52.358;9.752;2022-08-03T04:37:17;3.03;;;2.78;;
16612;SDS011;8419;52.358;9.752;2022-08-03T04:40:12;2.87;;;2.30;;
16612;SDS011;8419;52.358;9.752;2022-08-03T04:42:59;2.67;;;2.28;;
16612;SDS011;8419;52.358;9.752;2022-08-03T04:45:46;3.25;;;2.40;;
16612;SDS011;8419;52.358;9.752;2022-08-03T04:48:33;4.93;;;2.60;;
16612;SDS011;8419;52.358;9.752;2022-08-03T04:51:18;3.78;;;2.60;;
16612;SDS011;8419;52.358;9.752;2022-08-03T04:54:05;6.75;;;3.05;;
16612;SDS011;8419;52.358;9.752;2022-08-03T04:56:55;3.95;;;2.50;;
16612;SDS011;8419;52.358;9.752;2022-08-03T04:59:42;2.42;;;2.22;;
16612;SDS011;8419;52.358;9.752;2022-08-03T05:02:28;3.45;;;2.62;;
16612;SDS011;8419;52.358;9.752;2022-08-03T05:05:14;5.20;;;2.67;;
16612;SDS011;8419;52.358;9.752;2022-08-03T05:08:00;3.05;;;2.75;;
16612;SDS011;8419;52.358;9.752;2022-08-03T05:10:46;3.75;;;2.55;;
16612;SDS011;8419;52.358;9.752;2022-08-03T05:13:31;4.05;;;2.37;;
16612;SDS011;8419;52.358;9.752;2022-08-03T05:16:17;6.20;;;2.65;;
16612;SDS011;8419;52.358;9.752;2022-08-03T05:19:02;2.30;;;2.10;;
16612;SDS011;8419;52.358;9.752;2022-08-03T05:21:48;4.07;;;2.40;;
16612;SDS011;8419;52.358;9.752;2022-08-03T05:24:33;2.67;;;2.47;;
16612;SDS011;8419;52.358;9.752;2022-08-03T05:27:18;4.12;;;2.10;;
16612;SDS011;8419;52.358;9.752;2022-08-03T05:30:04;2.97;;;2.65;;
16612;SDS011;8419;52.358;9.752;2022-08-03T05:32:51;4.82;;;2.60;;
16612;SDS011;8419;52.358;9.752;2022-08-03T05:35:37;4.28;;;2.42;;
16612;SDS011;8419;52.358;9.752;2022-08-03T05:38:22;3.72;;;2.00;;
16612;SDS011;8419;52.358;9.752;2022-08-03T05:41:08;3.00;;;2.35;;
16612;SDS011;8419;52.358;9.752;2022-08-03T05:43:53;2.45;;;2.08;;
16612;SDS011;8419;52.358;9.752;2022-08-03T05:46:38;3.12;;;2.62;;
16612;SDS011;8419;52.358;9.752;2022-08-03T05:49:24;3.12;;;2.28;;
16612;SDS011;8419;52.358;9.752;2022-08-03T05:52:09;2.20;;;2.08;;
16612;SDS011;8419;52.358;9.752;2022-08-03T05:54:55;3.15;;;2.80;;
16612;SDS011;8419;52.358;9.752;2022-08-03T05:57:41;3.17;;;2.60;;
16612;SDS011;8419;52.358;9.752;2022-08-03T06:00:26;4.45;;;2.37;;
16612;SDS011;8419;52.358;9.752;2022-08-03T06:03:12;2.50;;;2.30;;
16612;SDS011;8419;52.358;9.752;2022-08-03T06:05:57;3.62;;;2.15;;
16612;SDS011;8419;52.358;9.752;2022-08-03T06:08:43;4.60;;;2.40;;
16612;SDS011;8419;52.358;9.752;2022-08-03T06:11:30;3.15;;;2.53;;
16612;SDS011;8419;52.358;9.752;2022-08-03T06:14:15;2.40;;;2.20;;
16612;SDS011;8419;52.358;9.752;2022-08-03T06:17:00;10.05;;;2.72;;
16612;SDS011;8419;52.358;9.752;2022-08-03T06:19:46;6.20;;;2.60;;
16612;SDS011;8419;52.358;9.752;2022-08-03T06:22:31;2.78;;;2.20;;
16612;SDS011;8419;52.358;9.752;2022-08-03T06:25:17;3.30;;;2.30;;
16612;SDS011;8419;52.358;9.752;2022-08-03T06:28:03;5.07;;;2.30;;
16612;SDS011;8419;52.358;9.752;2022-08-03T06:30:51;3.08;;;2.47;;
16612;SDS011;8419;52.358;9.752;2022-08-03T06:33:36;2.97;;;2.33;;
16612;SDS011;8419;52.358;9.752;2022-08-03T06:36:22;3.05;;;2.30;;
16612;SDS011;8419;52.358;9.752;2022-08-03T06:39:09;2.42;;;2.15;;
16612;SDS011;8419;52.358;9.752;2022-08-03T06:41:56;6.25;;;2.37;;
16612;SDS011;8419;52.358;9.752;2022-08-03T06:44:41;3.25;;;2.03;;
16612;SDS011;8419;52.358;9.752;2022-08-03T06:47:27;2.08;;;1.87;;
16612;SDS011;8419;52.358;9.752;2022-08-03T06:50:13;3.03;;;2.00;;
16612;SDS011;8419;52.358;9.752;2022-08-03T06:52:59;2.97;;;1.80;;
16612;SDS011;8419;52.358;9.752;2022-08-03T06:55:45;2.25;;;2.00;;
16612;SDS011;8419;52.358;9.752;2022-08-03T06:58:30;3.58;;;2.47;;
16612;SDS011;8419;52.358;9.752;2022-08-03T07:01:16;7.22;;;2.08;;
16612;SDS011;8419;52.358;9.752;2022-08-03T07:04:01;2.22;;;1.98;;
16612;SDS011;8419;52.358;9.752;2022-08-03T07:06:47;3.28;;;1.90;;
16612;SDS011;8419;52.358;9.752;2022-08-03T07:09:32;5.57;;;2.12;;
16612;SDS011;8419;52.358;9.752;2022-08-03T07:12:17;5.80;;;2.55;;
16612;SDS011;8419;52.358;9.752;2022-08-03T07:15:03;2.17;;;2.05;;
16612;SDS011;8419;52.358;9.752;2022-08-03T07:17:51;4.93;;;2.33;;
16612;SDS011;8419;52.358;9.752;2022-08-03T07:20:36;2.20;;;2.00;;
16612;SDS011;8419;52.358;9.752;2022-08-03T07:23:22;2.47;;;2.00;;
16612;SDS011;8419;52.358;9.752;2022-08-03T07:26:08;2.47;;;2.08;;
16612;SDS011;8419;52.358;9.752;2022-08-03T07:28:55;3.17;;;2.28;;
16612;SDS011;8419;52.358;9.752;2022-08-03T07:31:40;3.20;;;2.30;;
16612;SDS011;8419;52.358;9.752;2022-08-03T07:34:26;2.35;;;2.12;;
16612;SDS011;8419;52.358;9.752;2022-08-03T07:37:11;2.35;;;1.95;;
16612;SDS011;8419;52.358;9.752;2022-08-03T07:39:56;2.87;;;2.10;;
16612;SDS011;8419;52.358;9.752;2022-08-03T07:42:42;3.58;;;2.08;;
16612;SDS011;8419;52.358;9.752;2022-08-03T07:45:28;3.03;;;2.00;;
16612;SDS011;8419;52.358;9.752;2022-08-03T07:48:14;5.93;;;2.47;;
16612;SDS011;8419;52.358;9.752;2022-08-03T07:51:00;2.70;;;1.95;;
16612;SDS011;8419;52.358;9.752;2022-08-03T07:53:46;2.45;;;1.77;;
16612;SDS011;8419;52.358;9.752;2022-08-03T07:56:31;2.55;;;1.75;;
16612;SDS011;8419;52.358;9.752;2022-08-03T07:59:16;2.28;;;1.90;;
16612;SDS011;8419;52.358;9.752;2022-08-03T08:02:01;1.98;;;1.77;;
16612;SDS011;8419;52.358;9.752;2022-08-03T08:04:46;2.10;;;1.73;;
16612;SDS011;8419;52.358;9.752;2022-08-03T08:07:32;2.00;;;1.90;;
16612;SDS011;8419;52.358;9.752;2022-08-03T08:10:18;3.80;;;1.77;;
16612;SDS011;8419;52.358;9.752;2022-08-03T08:13:03;3.03;;;1.90;;
16612;SDS011;8419;52.358;9.752;2022-08-03T08:15:49;2.90;;;2.00;;
16612;SDS011;8419;52.358;9.752;2022-08-03T08:18:34;3.67;;;1.77;;
16612;SDS011;8419;52.358;9.752;2022-08-03T08:21:19;1.98;;;1.70;;
16612;SDS011;8419;52.358;9.752;2022-08-03T08:24:06;4.22;;;1.70;;
16612;SDS011;8419;52.358;9.752;2022-08-03T08:26:52;1.55;;;1.45;;
16612;SDS011;8419;52.358;9.752;2022-08-03T08:29:37;4.03;;;1.83;;
16612;SDS011;8419;52.358;9.752;2022-08-03T08:32:22;3.55;;;1.70;;
16612;SDS011;8419;52.358;9.752;2022-08-03T08:35:09;2.72;;;2.00;;
16612;SDS011;8419;52.358;9.752;2022-08-03T08:37:55;2.35;;;1.48;;
16612;SDS011;8419;52.358;9.752;2022-08-03T08:40:43;2.35;;;1.40;;
16612;SDS011;8419;52.358;9.752;2022-08-03T08:43:28;3.78;;;1.30;;
16612;SDS011;8419;52.358;9.752;2022-08-03T08:46:14;2.10;;;1.05;;
16612;SDS011;8419;52.358;9.752;2022-08-03T08:49:01;3.50;;;1.85;;
16612;SDS011;8419;52.358;9.752;2022-08-03T08:51:47;2.03;;;1.35;;
16612;SDS011;8419;52.358;9.752;2022-08-03T08:54:35;1.80;;;1.02;;
16612;SDS011;8419;52.358;9.752;2022-08-03T08:57:28;1.98;;;1.05;;
16612;SDS011;8419;52.358;9.752;2022-08-03T09:00:16;3.67;;;1.12;;
16612;SDS011;8419;52.358;9.752;2022-08-03T09:03:02;2.03;;;1.30;;
16612;SDS011;8419;52.358;9.752;2022-08-03T09:05:49;4.50;;;1.40;;
16612;SDS011;8419;52.358;9.752;2022-08-03T09:08:35;1.73;;;1.17;;
16612;SDS011;8419;52.358;9.752;2022-08-03T09:11:21;1.60;;;0.90;;
16612;SDS011;8419;52.358;9.752;2022-08-03T09:14:08;1.62;;;1.17;;
16612;SDS011;8419;52.358;9.752;2022-08-03T09:16:56;3.80;;;1.45;;
16612;SDS011;8419;52.358;9.752;2022-08-03T09:19:46;2.62;;;1.27;;
16612;SDS011;8419;52.358;9.752;2022-08-03T09:22:54;3.65;;;1.20;;
16612;SDS011;8419;52.358;9.752;2022-08-03T09:25:42;3.53;;;1.08;;
16612;SDS011;8419;52.358;9.752;2022-08-03T09:28:33;1.62;;;1.05;;
16612;SDS011;8419;52.358;9.752;2022-08-03T09:31:19;2.05;;;1.10;;
16612;SDS011;8419;52.358;9.752;2022-08-03T09:34:13;4.10;;;1.30;;
16612;SDS011;8419;52.358;9.752;2022-08-03T09:36:59;1.85;;;1.10;;
16612;SDS011;8419;52.358;9.752;2022-08-03T09:39:45;1.80;;;1.17;;
16612;SDS011;8419;52.358;9.752;2022-08-03T09:42:31;1.52;;;1.23;;
16612;SDS011;8419;52.358;9.752;2022-08-03T09:45:25;4.62;;;1.40;;
16612;SDS011;8419;52.358;9.752;2022-08-03T09:48:20;2.47;;;1.40;;
16612;SDS011;8419;52.358;9.752;2022-08-03T09:51:07;2.67;;;1.20;;
16612;SDS011;8419;52.358;9.752;2022-08-03T09:53:52;2.97;;;1.20;;
16612;SDS011;8419;52.358;9.752;2022-08-03T09:56:43;2.70;;;1.15;;
16612;SDS011;8419;52.358;9.752;2022-08-03T09:59:31;2.28;;;1.20;;
16612;SDS011;8419;52.358;9.752;2022-08-03T10:02:20;1.33;;;1.05;;
16612;SDS011;8419;52.358;9.752;2022-08-03T10:05:07;4.35;;;1.50;;
16612;SDS011;8419;52.358;9.752;2022-08-03T10:07:54;2.17;;;1.35;;
16612;SDS011;8419;52.358;9.752;2022-08-03T10:10:41;2.05;;;1.30;;
16612;SDS011;8419;52.358;9.752;2022-08-03T10:13:28;2.90;;;1.50;;
16612;SDS011;8419;52.358;9.752;2022-08-03T10:16:14;1.65;;;1.37;;
16612;SDS011;8419;52.358;9.752;2022-08-03T10:18:59;2.58;;;1.62;;
16612;SDS011;8419;52.358;9.752;2022-08-03T10:21:46;2.62;;;1.65;;
16612;SDS011;8419;52.358;9.752;2022-08-03T10:24:38;1.87;;;1.45;;
16612;SDS011;8419;52.358;9.752;2022-08-03T10:27:30;2.65;;;1.30;;
16612;SDS011;8419;52.358;9.752;2022-08-03T10:30:17;3.53;;;1.52;;
16612;SDS011;8419;52.358;9.752;2022-08-03T10:33:04;1.67;;;1.33;;
16612;SDS011;8419;52.358;9.752;2022-08-03T10:35:56;3.72;;;1.50;;
16612;SDS011;8419;52.358;9.752;2022-08-03T10:38:46;2.85;;;1.85;;
16612;SDS011;8419;52.358;9.752;2022-08-03T10:41:37;2.58;;;1.40;;
16612;SDS011;8419;52.358;9.752;2022-08-03T10:44:27;4.00;;;1.75;;
16612;SDS011;8419;52.358;9.752;2022-08-03T10:47:16;1.70;;;1.35;;
16612;SDS011;8419;52.358;9.752;2022-08-03T10:50:03;2.65;;;1.87;;
16612;SDS011;8419;52.358;9.752;2022-08-03T10:52:57;5.37;;;1.90;;
16612;SDS011;8419;52.358;9.752;2022-08-03T10:55:45;4.87;;;1.67;;
16612;SDS011;8419;52.358;9.752;2022-08-03T10:58:49;2.67;;;1.58;;
16612;SDS011;8419;52.358;9.752;2022-08-03T11:08:25;4.62;;;1.55;;
16612;SDS011;8419;52.358;9.752;2022-08-03T11:11:24;1.52;;;1.30;;
16612;SDS011;8419;52.358;9.752;2022-08-03T11:14:12;2.65;;;1.60;;
16612;SDS011;8419;52.358;9.752;2022-08-03T11:17:06;1.75;;;1.48;;
16612;SDS011;8419;52.358;9.752;2022-08-03T11:19:55;2.47;;;1.65;;
16612;SDS011;8419;52.358;9.752;2022-08-03T11:22:47;3.55;;;1.62;;
16612;SDS011;8419;52.358;9.752;2022-08-03T11:29:25;1.75;;;1.55;;
16612;SDS011;8419;52.358;9.752;2022-08-03T11:32:12;2.03;;;1.70;;
16612;SDS011;8419;52.358;9.752;2022-08-03T11:35:57;1.40;;;1.30;;
16612;SDS011;8419;52.358;9.752;2022-08-03T11:41:56;1.35;;;1.23;;
16612;SDS011;8419;52.358;9.752;2022-08-03T11:44:41;2.25;;;1.45;;
16612;SDS011;8419;52.358;9.752;2022-08-03T11:47:28;1.85;;;1.40;;
16612;SDS011;8419;52.358;9.752;2022-08-03T11:50:13;2.03;;;1.33;;
16612;SDS011;8419;52.358;9.752;2022-08-03T11:53:02;1.33;;;1.15;;
16612;SDS011;8419;52.358;9.752;2022-08-03T11:55:50;2.22;;;1.30;;
16612;SDS011;8419;52.358;9.752;2022-08-03T11:58:37;2.35;;;1.20;;
16612;SDS011;8419;52.358;9.752;2022-08-03T12:01:30;1.55;;;1.30;;
16612;SDS011;8419;52.358;9.752;2022-08-03T12:04:20;4.07;;;1.40;;
16612;SDS011;8419;52.358;9.752;2022-08-03T12:07:08;2.05;;;1.30;;
16612;SDS011;8419;52.358;9.752;2022-08-03T12:10:07;3.30;;;1.45;;
16612;SDS011;8419;52.358;9.752;2022-08-03T12:12:54;1.48;;;1.20;;
16612;SDS011;8419;52.358;9.752;2022-08-03T12:15:41;3.83;;;1.42;;
16612;SDS011;8419;52.358;9.752;2022-08-03T12:18:26;3.15;;;1.45;;
16612;SDS011;8419;52.358;9.752;2022-08-03T12:21:12;1.98;;;1.25;;
16612;SDS011;8419;52.358;9.752;2022-08-03T12:23:58;1.35;;;1.25;;
16612;SDS011;8419;52.358;9.752;2022-08-03T12:26:47;3.00;;;1.40;;
16612;SDS011;8419;52.358;9.752;2022-08-03T12:29:34;1.55;;;1.25;;
16612;SDS011;8419;52.358;9.752;2022-08-03T12:32:20;2.05;;;1.30;;
16612;SDS011;8419;52.358;9.752;2022-08-03T12:35:07;1.40;;;1.30;;
16612;SDS011;8419;52.358;9.752;2022-08-03T12:37:54;1.30;;;1.20;;
16612;SDS011;8419;52.358;9.752;2022-08-03T12:40:39;2.15;;;1.65;;
16612;SDS011;8419;52.358;9.752;2022-08-03T12:43:25;2.65;;;1.20;;
16612;SDS011;8419;52.358;9.752;2022-08-03T12:46:11;5.82;;;1.70;;
16612;SDS011;8419;52.358;9.752;2022-08-03T12:49:03;4.15;;;1.33;;
16612;SDS011;8419;52.358;9.752;2022-08-03T12:51:57;1.80;;;1.40;;
16612;SDS011;8419;52.358;9.752;2022-08-03T12:54:43;2.00;;;1.48;;
16612;SDS011;8419;52.358;9.752;2022-08-03T12:57:39;3.58;;;1.35;;
16612;SDS011;8419;52.358;9.752;2022-08-03T13:00:26;2.50;;;1.30;;
16612;SDS011;8419;52.358;9.752;2022-08-03T13:03:13;2.22;;;1.30;;
16612;SDS011;8419;52.358;9.752;2022-08-03T13:05:58;3.70;;;1.50;;
16612;SDS011;8419;52.358;9.752;2022-08-03T13:08:44;2.72;;;1.70;;
16612;SDS011;8419;52.358;9.752;2022-08-03T13:11:31;3.45;;;1.35;;
16612;SDS011;8419;52.358;9.752;2022-08-03T13:14:17;2.92;;;1.90;;
16612;SDS011;8419;52.358;9.752;2022-08-03T13:17:02;1.67;;;1.33;;
16612;SDS011;8419;52.358;9.752;2022-08-03T13:19:49;1.50;;;1.40;;
16612;SDS011;8419;52.358;9.752;2022-08-03T13:22:35;3.72;;;1.40;;
16612;SDS011;8419;52.358;9.752;2022-08-03T13:25:21;3.53;;;1.87;;
16612;SDS011;8419;52.358;9.752;2022-08-03T13:28:06;2.22;;;1.30;;
16612;SDS011;8419;52.358;9.752;2022-08-03T13:30:51;3.25;;;2.03;;
16612;SDS011;8419;52.358;9.752;2022-08-03T13:33:37;2.05;;;1.60;;
16612;SDS011;8419;52.358;9.752;2022-08-03T13:36:24;1.73;;;1.60;;
16612;SDS011;8419;52.358;9.752;2022-08-03T13:39:09;1.50;;;1.40;;
16612;SDS011;8419;52.358;9.752;2022-08-03T13:41:54;2.83;;;1.20;;
16612;SDS011;8419;52.358;9.752;2022-08-03T13:44:40;1.60;;;1.37;;
16612;SDS011;8419;52.358;9.752;2022-08-03T13:47:25;3.70;;;1.30;;
16612;SDS011;8419;52.358;9.752;2022-08-03T13:50:11;1.17;;;0.90;;
16612;SDS011;8419;52.358;9.752;2022-08-03T13:52:58;1.83;;;0.93;;
16612;SDS011;8419;52.358;9.752;2022-08-03T13:55:43;1.27;;;1.10;;
16612;SDS011;8419;52.358;9.752;2022-08-03T13:58:28;2.37;;;1.10;;
16612;SDS011;8419;52.358;9.752;2022-08-03T14:01:14;1.70;;;1.12;;
16612;SDS011;8419;52.358;9.752;2022-08-03T14:03:59;1.58;;;1.10;;
16612;SDS011;8419;52.358;9.752;2022-08-03T14:06:47;1.92;;;1.10;;
16612;SDS011;8419;52.358;9.752;2022-08-03T14:09:33;2.00;;;1.23;;
16612;SDS011;8419;52.358;9.752;2022-08-03T14:12:18;1.83;;;1.50;;
16612;SDS011;8419;52.358;9.752;2022-08-03T14:15:05;1.50;;;1.35;;
16612;SDS011;8419;52.358;9.752;2022-08-03T14:17:53;4.30;;;1.40;;
16612;SDS011;8419;52.358;9.752;2022-08-03T14:20:39;1.80;;;1.50;;
16612;SDS011;8419;52.358;9.752;2022-08-03T14:23:24;1.30;;;1.20;;
16612;SDS011;8419;52.358;9.752;2022-08-03T14:26:10;3.12;;;1.30;;
16612;SDS011;8419;52.358;9.752;2022-08-03T14:28:57;1.90;;;1.02;;
16612;SDS011;8419;52.358;9.752;2022-08-03T14:31:43;2.85;;;1.30;;
16612;SDS011;8419;52.358;9.752;2022-08-03T14:34:28;5.00;;;1.40;;
16612;SDS011;8419;52.358;9.752;2022-08-03T14:37:14;1.70;;;1.30;;
16612;SDS011;8419;52.358;9.752;2022-08-03T14:39:59;4.93;;;1.62;;
16612;SDS011;8419;52.358;9.752;2022-08-03T14:42:44;1.48;;;1.23;;
16612;SDS011;8419;52.358;9.752;2022-08-03T14:45:30;1.20;;;1.10;;
16612;SDS011;8419;52.358;9.752;2022-08-03T14:48:15;1.45;;;1.20;;
16612;SDS011;8419;52.358;9.752;2022-08-03T14:51:01;1.40;;;1.20;;
16612;SDS011;8419;52.358;9.752;2022-08-03T14:53:47;2.65;;;1.95;;
16612;SDS011;8419;52.358;9.752;2022-08-03T14:56:33;1.70;;;1.33;;
16612;SDS011;8419;52.358;9.752;2022-08-03T14:59:20;2.10;;;1.02;;
16612;SDS011;8419;52.358;9.752;2022-08-03T15:02:06;1.85;;;1.40;;
16612;SDS011;8419;52.358;9.752;2022-08-03T15:04:51;2.35;;;1.42;;
16612;SDS011;8419;52.358;9.752;2022-08-03T15:07:36;1.70;;;1.30;;
16612;SDS011;8419;52.358;9.752;2022-08-03T15:10:21;4.20;;;1.58;;
16612;SDS011;8419;52.358;9.752;2022-08-03T15:13:09;1.87;;;1.30;;
16612;SDS011;8419;52.358;9.752;2022-08-03T15:15:54;2.12;;;1.48;;
16612;SDS011;8419;52.358;9.752;2022-08-03T15:18:40;1.58;;;1.33;;
16612;SDS011;8419;52.358;9.752;2022-08-03T15:21:26;1.50;;;1.37;;
16612;SDS011;8419;52.358;9.752;2022-08-03T15:24:12;2.37;;;1.50;;
16612;SDS011;8419;52.358;9.752;2022-08-03T15:26:57;3.03;;;1.67;;
16612;SDS011;8419;52.358;9.752;2022-08-03T15:29:43;2.95;;;1.40;;
16612;SDS011;8419;52.358;9.752;2022-08-03T15:32:28;2.40;;;1.45;;
16612;SDS011;8419;52.358;9.752;2022-08-03T15:35:14;2.40;;;1.50;;
16612;SDS011;8419;52.358;9.752;2022-08-03T15:37:59;2.20;;;1.90;;
16612;SDS011;8419;52.358;9.752;2022-08-03T15:40:45;2.10;;;1.50;;
16612;SDS011;8419;52.358;9.752;2022-08-03T15:43:31;4.05;;;2.30;;
16612;SDS011;8419;52.358;9.752;2022-08-03T15:46:16;3.60;;;1.55;;
16612;SDS011;8419;52.358;9.752;2022-08-03T15:49:02;2.15;;;1.67;;
16612;SDS011;8419;52.358;9.752;2022-08-03T15:51:47;2.67;;;1.60;;
16612;SDS011;8419;52.358;9.752;2022-08-03T15:54:33;3.72;;;1.90;;
16612;SDS011;8419;52.358;9.752;2022-08-03T15:57:18;3.35;;;1.40;;
16612;SDS011;8419;52.358;9.752;2022-08-03T16:00:05;3.87;;;1.35;;
16612;SDS011;8419;52.358;9.752;2022-08-03T16:02:52;5.55;;;1.27;;
16612;SDS011;8419;52.358;9.752;2022-08-03T16:05:37;4.12;;;1.50;;
16612;SDS011;8419;52.358;9.752;2022-08-03T16:08:22;2.30;;;1.33;;
16612;SDS011;8419;52.358;9.752;2022-08-03T16:11:07;1.48;;;1.30;;
16612;SDS011;8419;52.358;9.752;2022-08-03T16:13:54;4.45;;;1.40;;
16612;SDS011;8419;52.358;9.752;2022-08-03T16:16:39;1.62;;;1.52;;
16612;SDS011;8419;52.358;9.752;2022-08-03T16:19:25;1.85;;;1.45;;
16612;SDS011;8419;52.358;9.752;2022-08-03T16:22:11;4.15;;;1.50;;
16612;SDS011;8419;52.358;9.752;2022-08-03T16:24:56;1.80;;;1.30;;
16612;SDS011;8419;52.358;9.752;2022-08-03T16:27:42;1.67;;;1.45;;
16612;SDS011;8419;52.358;9.752;2022-08-03T16:30:28;3.58;;;1.37;;
16612;SDS011;8419;52.358;9.752;2022-08-03T16:33:14;3.75;;;1.83;;
16612;SDS011;8419;52.358;9.752;2022-08-03T16:36:00;2.15;;;1.45;;
16612;SDS011;8419;52.358;9.752;2022-08-03T16:38:46;2.72;;;1.42;;
16612;SDS011;8419;52.358;9.752;2022-08-03T16:41:32;2.35;;;1.45;;
16612;SDS011;8419;52.358;9.752;2022-08-03T16:44:20;3.22;;;1.80;;
16612;SDS011;8419;52.358;9.752;2022-08-03T16:47:05;1.90;;;1.67;;
16612;SDS011;8419;52.358;9.752;2022-08-03T16:49:50;2.87;;;1.40;;
16612;SDS011;8419;52.358;9.752;2022-08-03T16:52:36;2.42;;;1.40;;
16612;SDS011;8419;52.358;9.752;2022-08-03T16:55:21;4.32;;;1.35;;
16612;SDS011;8419;52.358;9.752;2022-08-03T16:58:07;2.58;;;1.17;;
16612;SDS011;8419;52.358;9.752;2022-08-03T17:00:52;2.05;;;1.35;;
16612;SDS011;8419;52.358;9.752;2022-08-03T17:03:37;2.72;;;1.30;;
16612;SDS011;8419;52.358;9.752;2022-08-03T17:06:24;2.62;;;1.10;;
16612;SDS011;8419;52.358;9.752;2022-08-03T17:09:11;1.45;;;1.12;;
16612;SDS011;8419;52.358;9.752;2022-08-03T17:11:58;1.98;;;1.30;;
16612;SDS011;8419;52.358;9.752;2022-08-03T17:14:43;1.42;;;1.25;;
16612;SDS011;8419;52.358;9.752;2022-08-03T17:17:29;1.55;;;1.25;;